sensor_id;sensor_type;location;lat;lon;timestamp;P1;durP1;ratioP1;P2;durP2;ratioP2
40621;SDS011;26324;52.040;11.528;2023-04-25T00:01:03;3.55;;;1.55;;
40621;SDS011;26324;52.040;11.528;2023-04-25T00:03:45;2.17;;;1.20;;
40621;SDS011;26324;52.040;11.528;2023-04-25T00:06:13;3.53;;;1.50;;
40621;SDS011;26324;52.040;11.528;2023-04-25T00:08:42;3.42;;;1.58;;
40621;SDS011;26324;52.040;11.528;2023-04-25T00:11:09;2.47;;;1.63;;
40621;SDS011;26324;52.040;11.528;2023-04-25T00:13:37;3.58;;;1.63;;
40621;SDS011;26324;52.040;11.528;2023-04-25T00:16:04;5.57;;;1.25;;
40621;SDS011;26324;52.040;11.528;2023-04-25T00:18:32;7.43;;;1.90;;
40621;SDS011;26324;52.040;11.528;2023-04-25T00:20:59;3.20;;;1.73;;
40621;SDS011;26324;52.040;11.528;2023-04-25T00:23:27;3.42;;;1.88;;
40621;SDS011;26324;52.040;11.528;2023-04-25T00:25:55;3.33;;;1.83;;
40621;SDS011;26324;52.040;11.528;2023-04-25T00:28:22;2.83;;;1.63;;
40621;SDS011;26324;52.040;11.528;2023-04-25T00:30:50;3.17;;;2.00;;
40621;SDS011;26324;52.040;11.528;2023-04-25T00:33:17;3.05;;;1.73;;
40621;SDS011;26324;52.040;11.528;2023-04-25T00:35:44;3.30;;;1.58;;
40621;SDS011;26324;52.040;11.528;2023-04-25T00:38:12;2.25;;;1.33;;
40621;SDS011;26324;52.040;11.528;2023-04-25T00:40:43;3.50;;;1.63;;
40621;SDS011;26324;52.040;11.528;2023-04-25T00:43:10;3.25;;;1.48;;
40621;SDS011;26324;52.040;11.528;2023-04-25T00:45:38;3.53;;;1.80;;
40621;SDS011;26324;52.040;11.528;2023-04-25T00:50:34;3.42;;;1.60;;
40621;SDS011;26324;52.040;11.528;2023-04-25T00:53:03;6.82;;;2.17;;
40621;SDS011;26324;52.040;11.528;2023-04-25T00:55:30;3.67;;;1.65;;
40621;SDS011;26324;52.040;11.528;2023-04-25T00:58:06;3.65;;;1.70;;
40621;SDS011;26324;52.040;11.528;2023-04-25T01:00:33;6.97;;;1.92;;
40621;SDS011;26324;52.040;11.528;2023-04-25T01:03:00;4.30;;;1.80;;
40621;SDS011;26324;52.040;11.528;2023-04-25T02:07:43;3.50;;;1.35;;
40621;SDS011;26324;52.040;11.528;2023-04-25T02:10:11;1.95;;;0.82;;
40621;SDS011;26324;52.040;11.528;2023-04-25T02:12:53;1.83;;;1.40;;
40621;SDS011;26324;52.040;11.528;2023-04-25T02:15:28;8.32;;;1.80;;
40621;SDS011;26324;52.040;11.528;2023-04-25T02:18:01;2.92;;;1.80;;
40621;SDS011;26324;52.040;11.528;2023-04-25T02:20:29;2.88;;;1.40;;
40621;SDS011;26324;52.040;11.528;2023-04-25T02:22:58;2.25;;;1.15;;
40621;SDS011;26324;52.040;11.528;2023-04-25T02:25:27;5.13;;;1.63;;
40621;SDS011;26324;52.040;11.528;2023-04-25T02:27:54;8.77;;;2.10;;
40621;SDS011;26324;52.040;11.528;2023-04-25T02:30:22;4.13;;;1.88;;
40621;SDS011;26324;52.040;11.528;2023-04-25T02:32:49;3.92;;;1.77;;
40621;SDS011;26324;52.040;11.528;2023-04-25T02:35:17;7.65;;;1.98;;
40621;SDS011;26324;52.040;11.528;2023-04-25T02:37:45;4.55;;;1.60;;
40621;SDS011;26324;52.040;11.528;2023-04-25T02:40:13;3.47;;;1.60;;
40621;SDS011;26324;52.040;11.528;2023-04-25T02:42:40;4.53;;;1.70;;
40621;SDS011;26324;52.040;11.528;2023-04-25T02:45:07;4.38;;;1.33;;
40621;SDS011;26324;52.040;11.528;2023-04-25T02:47:35;6.88;;;1.95;;
40621;SDS011;26324;52.040;11.528;2023-04-25T02:50:02;4.10;;;1.38;;
40621;SDS011;26324;52.040;11.528;2023-04-25T02:52:30;4.80;;;1.35;;
40621;SDS011;26324;52.040;11.528;2023-04-25T02:55:14;5.10;;;1.73;;
40621;SDS011;26324;52.040;11.528;2023-04-25T02:57:42;4.10;;;1.67;;
40621;SDS011;26324;52.040;11.528;2023-04-25T03:00:13;2.22;;;1.33;;
40621;SDS011;26324;52.040;11.528;2023-04-25T03:02:41;4.75;;;2.08;;
40621;SDS011;26324;52.040;11.528;2023-04-25T03:05:08;7.95;;;1.50;;
40621;SDS011;26324;52.040;11.528;2023-04-25T03:07:36;6.85;;;1.80;;
40621;SDS011;26324;52.040;11.528;2023-04-25T03:10:03;3.25;;;1.30;;
40621;SDS011;26324;52.040;11.528;2023-04-25T03:15:00;2.30;;;1.08;;
40621;SDS011;26324;52.040;11.528;2023-04-25T03:17:27;2.95;;;1.52;;
40621;SDS011;26324;52.040;11.528;2023-04-25T03:19:55;4.93;;;1.40;;
40621;SDS011;26324;52.040;11.528;2023-04-25T03:22:22;3.75;;;2.13;;
40621;SDS011;26324;52.040;11.528;2023-04-25T03:24:50;5.20;;;1.92;;
40621;SDS011;26324;52.040;11.528;2023-04-25T03:27:19;4.68;;;1.63;;
40621;SDS011;26324;52.040;11.528;2023-04-25T03:29:46;3.20;;;1.52;;
40621;SDS011;26324;52.040;11.528;2023-04-25T03:32:21;5.90;;;1.50;;
40621;SDS011;26324;52.040;11.528;2023-04-25T03:34:48;4.43;;;1.85;;
40621;SDS011;26324;52.040;11.528;2023-04-25T03:37:16;6.25;;;1.42;;
40621;SDS011;26324;52.040;11.528;2023-04-25T03:39:44;3.15;;;1.48;;
40621;SDS011;26324;52.040;11.528;2023-04-25T03:42:11;5.00;;;1.40;;
40621;SDS011;26324;52.040;11.528;2023-04-25T03:44:38;2.20;;;1.15;;
40621;SDS011;26324;52.040;11.528;2023-04-25T03:47:06;4.95;;;1.90;;
40621;SDS011;26324;52.040;11.528;2023-04-25T03:49:34;5.07;;;1.70;;
40621;SDS011;26324;52.040;11.528;2023-04-25T03:52:04;6.03;;;1.40;;
40621;SDS011;26324;52.040;11.528;2023-04-25T03:54:35;3.15;;;1.42;;
40621;SDS011;26324;52.040;11.528;2023-04-25T03:57:09;6.72;;;1.83;;
40621;SDS011;26324;52.040;11.528;2023-04-25T03:59:38;4.63;;;1.67;;
40621;SDS011;26324;52.040;11.528;2023-04-25T04:02:08;4.93;;;1.48;;
40621;SDS011;26324;52.040;11.528;2023-04-25T04:04:36;3.78;;;1.67;;
40621;SDS011;26324;52.040;11.528;2023-04-25T04:07:05;3.25;;;1.75;;
40621;SDS011;26324;52.040;11.528;2023-04-25T04:09:35;6.18;;;2.08;;
40621;SDS011;26324;52.040;11.528;2023-04-25T04:12:08;8.35;;;2.03;;
40621;SDS011;26324;52.040;11.528;2023-04-25T04:14:37;9.13;;;1.83;;
40621;SDS011;26324;52.040;11.528;2023-04-25T04:17:04;2.55;;;1.33;;
40621;SDS011;26324;52.040;11.528;2023-04-25T04:19:32;3.63;;;2.10;;
40621;SDS011;26324;52.040;11.528;2023-04-25T04:22:17;4.38;;;1.55;;
40621;SDS011;26324;52.040;11.528;2023-04-25T04:24:45;3.70;;;1.63;;
40621;SDS011;26324;52.040;11.528;2023-04-25T04:27:18;4.28;;;2.15;;
40621;SDS011;26324;52.040;11.528;2023-04-25T04:30:05;2.40;;;1.73;;
40621;SDS011;26324;52.040;11.528;2023-04-25T04:32:38;9.93;;;1.90;;
40621;SDS011;26324;52.040;11.528;2023-04-25T04:35:05;5.07;;;2.05;;
40621;SDS011;26324;52.040;11.528;2023-04-25T04:37:33;5.95;;;1.83;;
40621;SDS011;26324;52.040;11.528;2023-04-25T04:40:01;6.10;;;2.42;;
40621;SDS011;26324;52.040;11.528;2023-04-25T04:42:50;5.53;;;2.05;;
40621;SDS011;26324;52.040;11.528;2023-04-25T04:45:36;3.67;;;1.52;;
40621;SDS011;26324;52.040;11.528;2023-04-25T04:48:31;4.05;;;1.60;;
40621;SDS011;26324;52.040;11.528;2023-04-25T04:51:24;12.80;;;2.38;;
40621;SDS011;26324;52.040;11.528;2023-04-25T04:54:10;5.97;;;2.45;;
40621;SDS011;26324;52.040;11.528;2023-04-25T04:56:48;5.85;;;2.33;;
40621;SDS011;26324;52.040;11.528;2023-04-25T04:59:16;9.07;;;2.30;;
40621;SDS011;26324;52.040;11.528;2023-04-25T05:01:59;3.92;;;1.52;;
40621;SDS011;26324;52.040;11.528;2023-04-25T05:04:45;3.55;;;1.90;;
40621;SDS011;26324;52.040;11.528;2023-04-25T05:07:31;4.68;;;2.05;;
40621;SDS011;26324;52.040;11.528;2023-04-25T05:10:05;3.92;;;1.85;;
40621;SDS011;26324;52.040;11.528;2023-04-25T05:12:55;6.15;;;2.10;;
40621;SDS011;26324;52.040;11.528;2023-04-25T05:15:52;5.18;;;2.35;;
40621;SDS011;26324;52.040;11.528;2023-04-25T05:18:46;6.22;;;2.17;;
40621;SDS011;26324;52.040;11.528;2023-04-25T05:21:29;4.68;;;1.98;;
40621;SDS011;26324;52.040;11.528;2023-04-25T05:24:18;6.60;;;2.80;;
40621;SDS011;26324;52.040;11.528;2023-04-25T05:27:04;6.40;;;3.25;;
40621;SDS011;26324;52.040;11.528;2023-04-25T05:29:45;3.78;;;1.95;;
40621;SDS011;26324;52.040;11.528;2023-04-25T05:32:26;6.63;;;2.13;;
40621;SDS011;26324;52.040;11.528;2023-04-25T05:34:54;3.05;;;1.80;;
40621;SDS011;26324;52.040;11.528;2023-04-25T05:37:25;4.95;;;2.03;;
40621;SDS011;26324;52.040;11.528;2023-04-25T05:39:58;4.90;;;2.17;;
40621;SDS011;26324;52.040;11.528;2023-04-25T05:42:45;6.18;;;1.40;;
40621;SDS011;26324;52.040;11.528;2023-04-25T05:45:27;5.20;;;2.00;;
40621;SDS011;26324;52.040;11.528;2023-04-25T05:48:03;2.85;;;1.60;;
40621;SDS011;26324;52.040;11.528;2023-04-25T05:50:56;4.40;;;2.35;;
40621;SDS011;26324;52.040;11.528;2023-04-25T05:53:44;1.23;;;0.77;;
40621;SDS011;26324;52.040;11.528;2023-04-25T05:56:13;5.47;;;1.77;;
40621;SDS011;26324;52.040;11.528;2023-04-25T05:58:40;1.48;;;0.73;;
40621;SDS011;26324;52.040;11.528;2023-04-25T06:01:10;3.03;;;0.98;;
40621;SDS011;26324;52.040;11.528;2023-04-25T06:03:37;1.08;;;0.45;;
40621;SDS011;26324;52.040;11.528;2023-04-25T06:06:05;0.75;;;0.52;;
40621;SDS011;26324;52.040;11.528;2023-04-25T06:08:33;4.70;;;1.35;;
40621;SDS011;26324;52.040;11.528;2023-04-25T06:11:00;4.32;;;1.65;;
40621;SDS011;26324;52.040;11.528;2023-04-25T06:13:30;6.93;;;0.90;;
40621;SDS011;26324;52.040;11.528;2023-04-25T06:16:12;5.38;;;1.15;;
40621;SDS011;26324;52.040;11.528;2023-04-25T06:19:13;6.60;;;1.48;;
40621;SDS011;26324;52.040;11.528;2023-04-25T06:26:12;1.95;;;0.88;;
40621;SDS011;26324;52.040;11.528;2023-04-25T06:29:24;2.60;;;1.05;;
40621;SDS011;26324;52.040;11.528;2023-04-25T06:32:19;6.05;;;2.28;;
40621;SDS011;26324;52.040;11.528;2023-04-25T06:35:35;2.80;;;1.00;;
40621;SDS011;26324;52.040;11.528;2023-04-25T06:38:12;4.38;;;1.17;;
40621;SDS011;26324;52.040;11.528;2023-04-25T06:40:57;8.13;;;1.52;;
40621;SDS011;26324;52.040;11.528;2023-04-25T06:43:35;2.88;;;0.93;;
40621;SDS011;26324;52.040;11.528;2023-04-25T06:46:24;3.10;;;0.90;;
40621;SDS011;26324;52.040;11.528;2023-04-25T06:49:01;1.95;;;1.30;;
40621;SDS011;26324;52.040;11.528;2023-04-25T06:51:38;2.70;;;1.05;;
40621;SDS011;26324;52.040;11.528;2023-04-25T06:54:08;4.40;;;1.63;;
40621;SDS011;26324;52.040;11.528;2023-04-25T06:56:47;4.70;;;0.88;;
40621;SDS011;26324;52.040;11.528;2023-04-25T06:59:22;3.78;;;1.10;;
40621;SDS011;26324;52.040;11.528;2023-04-25T07:02:37;6.28;;;1.38;;
40621;SDS011;26324;52.040;11.528;2023-04-25T07:05:13;2.58;;;1.33;;
40621;SDS011;26324;52.040;11.528;2023-04-25T07:07:45;4.93;;;1.10;;
40621;SDS011;26324;52.040;11.528;2023-04-25T07:10:36;3.88;;;1.40;;
40621;SDS011;26324;52.040;11.528;2023-04-25T07:13:56;4.80;;;0.88;;
40621;SDS011;26324;52.040;11.528;2023-04-25T07:16:29;1.20;;;0.70;;
40621;SDS011;26324;52.040;11.528;2023-04-25T07:19:00;7.13;;;1.60;;
40621;SDS011;26324;52.040;11.528;2023-04-25T07:21:30;3.13;;;1.13;;
40621;SDS011;26324;52.040;11.528;2023-04-25T07:24:02;3.63;;;0.82;;
40621;SDS011;26324;52.040;11.528;2023-04-25T07:26:36;8.20;;;1.52;;
40621;SDS011;26324;52.040;11.528;2023-04-25T07:29:39;1.05;;;0.50;;
40621;SDS011;26324;52.040;11.528;2023-04-25T07:32:06;4.78;;;0.65;;
40621;SDS011;26324;52.040;11.528;2023-04-25T07:34:34;3.33;;;1.55;;
40621;SDS011;26324;52.040;11.528;2023-04-25T07:37:05;1.75;;;0.57;;
40621;SDS011;26324;52.040;11.528;2023-04-25T07:39:41;4.10;;;1.33;;
40621;SDS011;26324;52.040;11.528;2023-04-25T07:42:09;4.90;;;0.95;;
40621;SDS011;26324;52.040;11.528;2023-04-25T07:44:40;12.48;;;1.83;;
40621;SDS011;26324;52.040;11.528;2023-04-25T07:47:09;1.60;;;0.52;;
40621;SDS011;26324;52.040;11.528;2023-04-25T07:49:37;10.00;;;1.30;;
40621;SDS011;26324;52.040;11.528;2023-04-25T07:52:04;6.00;;;1.10;;
40621;SDS011;26324;52.040;11.528;2023-04-25T07:54:37;4.03;;;0.82;;
40621;SDS011;26324;52.040;11.528;2023-04-25T07:57:12;4.03;;;0.90;;
40621;SDS011;26324;52.040;11.528;2023-04-25T07:59:52;0.52;;;0.50;;
40621;SDS011;26324;52.040;11.528;2023-04-25T08:02:21;5.43;;;1.15;;
40621;SDS011;26324;52.040;11.528;2023-04-25T08:04:58;3.70;;;0.93;;
40621;SDS011;26324;52.040;11.528;2023-04-25T08:07:33;0.93;;;0.70;;
40621;SDS011;26324;52.040;11.528;2023-04-25T08:10:04;1.63;;;0.80;;
40621;SDS011;26324;52.040;11.528;2023-04-25T08:12:33;6.55;;;0.93;;
40621;SDS011;26324;52.040;11.528;2023-04-25T08:15:01;10.77;;;1.27;;
40621;SDS011;26324;52.040;11.528;2023-04-25T08:17:32;9.38;;;0.90;;
40621;SDS011;26324;52.040;11.528;2023-04-25T08:20:00;1.50;;;0.80;;
40621;SDS011;26324;52.040;11.528;2023-04-25T08:22:30;3.65;;;1.25;;
40621;SDS011;26324;52.040;11.528;2023-04-25T08:25:20;5.28;;;0.90;;
40621;SDS011;26324;52.040;11.528;2023-04-25T08:27:48;3.30;;;0.82;;
40621;SDS011;26324;52.040;11.528;2023-04-25T08:30:18;0.90;;;0.45;;
40621;SDS011;26324;52.040;11.528;2023-04-25T08:32:45;4.65;;;0.60;;
40621;SDS011;26324;52.040;11.528;2023-04-25T08:35:29;1.85;;;0.82;;
40621;SDS011;26324;52.040;11.528;2023-04-25T08:37:57;2.95;;;1.02;;
40621;SDS011;26324;52.040;11.528;2023-04-25T08:40:26;3.60;;;0.77;;
40621;SDS011;26324;52.040;11.528;2023-04-25T08:43:01;0.95;;;0.50;;
40621;SDS011;26324;52.040;11.528;2023-04-25T08:45:31;2.97;;;0.80;;
40621;SDS011;26324;52.040;11.528;2023-04-25T08:48:13;5.50;;;1.45;;
40621;SDS011;26324;52.040;11.528;2023-04-25T08:50:49;1.45;;;0.55;;
40621;SDS011;26324;52.040;11.528;2023-04-25T08:53:21;1.10;;;0.60;;
40621;SDS011;26324;52.040;11.528;2023-04-25T08:55:55;1.40;;;0.45;;
40621;SDS011;26324;52.040;11.528;2023-04-25T08:58:23;9.20;;;1.05;;
40621;SDS011;26324;52.040;11.528;2023-04-25T09:00:51;4.80;;;0.88;;
40621;SDS011;26324;52.040;11.528;2023-04-25T09:03:21;1.10;;;0.60;;
40621;SDS011;26324;52.040;11.528;2023-04-25T09:05:51;2.05;;;0.70;;
40621;SDS011;26324;52.040;11.528;2023-04-25T09:08:20;2.15;;;0.60;;
40621;SDS011;26324;52.040;11.528;2023-04-25T09:10:48;2.28;;;1.67;;
40621;SDS011;26324;52.040;11.528;2023-04-25T09:13:24;1.63;;;0.45;;
40621;SDS011;26324;52.040;11.528;2023-04-25T09:23:04;3.35;;;0.85;;
40621;SDS011;26324;52.040;11.528;2023-04-25T09:25:37;2.50;;;0.45;;
40621;SDS011;26324;52.040;11.528;2023-04-25T09:28:13;3.95;;;1.00;;
40621;SDS011;26324;52.040;11.528;2023-04-25T09:31:02;3.42;;;0.50;;
40621;SDS011;26324;52.040;11.528;2023-04-25T09:33:40;0.65;;;0.32;;
40621;SDS011;26324;52.040;11.528;2023-04-25T09:36:08;1.20;;;0.50;;
40621;SDS011;26324;52.040;11.528;2023-04-25T09:38:51;1.13;;;0.73;;
40621;SDS011;26324;52.040;11.528;2023-04-25T09:41:28;1.45;;;0.50;;
40621;SDS011;26324;52.040;11.528;2023-04-25T09:43:59;1.77;;;0.50;;
40621;SDS011;26324;52.040;11.528;2023-04-25T09:46:35;3.00;;;0.70;;
40621;SDS011;26324;52.040;11.528;2023-04-25T09:49:10;1.60;;;0.50;;
40621;SDS011;26324;52.040;11.528;2023-04-25T09:51:54;1.77;;;0.80;;
40621;SDS011;26324;52.040;11.528;2023-04-25T09:54:26;1.35;;;0.70;;
40621;SDS011;26324;52.040;11.528;2023-04-25T09:57:24;0.65;;;0.40;;
40621;SDS011;26324;52.040;11.528;2023-04-25T09:59:54;4.13;;;0.90;;
40621;SDS011;26324;52.040;11.528;2023-04-25T10:02:25;2.30;;;0.90;;
40621;SDS011;26324;52.040;11.528;2023-04-25T10:05:01;4.97;;;0.80;;
40621;SDS011;26324;52.040;11.528;2023-04-25T10:07:37;4.43;;;1.67;;
40621;SDS011;26324;52.040;11.528;2023-04-25T10:10:09;2.63;;;0.82;;
40621;SDS011;26324;52.040;11.528;2023-04-25T10:12:43;3.40;;;0.98;;
40621;SDS011;26324;52.040;11.528;2023-04-25T10:15:15;7.28;;;1.63;;
40621;SDS011;26324;52.040;11.528;2023-04-25T10:18:04;4.65;;;1.48;;
40621;SDS011;26324;52.040;11.528;2023-04-25T10:20:33;2.35;;;1.08;;
40621;SDS011;26324;52.040;11.528;2023-04-25T10:23:03;3.42;;;0.88;;
40621;SDS011;26324;52.040;11.528;2023-04-25T10:25:40;1.65;;;0.95;;
40621;SDS011;26324;52.040;11.528;2023-04-25T10:28:08;3.60;;;1.23;;
40621;SDS011;26324;52.040;11.528;2023-04-25T10:30:36;2.35;;;1.08;;
40621;SDS011;26324;52.040;11.528;2023-04-25T10:33:08;5.13;;;1.27;;
40621;SDS011;26324;52.040;11.528;2023-04-25T10:38:15;2.50;;;0.70;;
40621;SDS011;26324;52.040;11.528;2023-04-25T10:41:02;1.23;;;0.38;;
40621;SDS011;26324;52.040;11.528;2023-04-25T10:43:40;4.53;;;1.42;;
40621;SDS011;26324;52.040;11.528;2023-04-25T10:48:53;5.85;;;1.02;;
40621;SDS011;26324;52.040;11.528;2023-04-25T10:51:26;3.13;;;1.00;;
40621;SDS011;26324;52.040;11.528;2023-04-25T10:54:06;2.45;;;0.98;;
40621;SDS011;26324;52.040;11.528;2023-04-25T10:56:38;2.40;;;1.08;;
40621;SDS011;26324;52.040;11.528;2023-04-25T10:59:11;3.85;;;0.90;;
40621;SDS011;26324;52.040;11.528;2023-04-25T11:01:44;0.43;;;0.40;;
40621;SDS011;26324;52.040;11.528;2023-04-25T11:09:40;1.10;;;0.68;;
40621;SDS011;26324;52.040;11.528;2023-04-25T11:12:08;2.40;;;0.60;;
40621;SDS011;26324;52.040;11.528;2023-04-25T11:14:40;1.50;;;0.73;;
40621;SDS011;26324;52.040;11.528;2023-04-25T11:17:08;0.57;;;0.45;;
40621;SDS011;26324;52.040;11.528;2023-04-25T11:19:37;1.00;;;0.50;;
40621;SDS011;26324;52.040;11.528;2023-04-25T11:22:04;1.35;;;0.82;;
40621;SDS011;26324;52.040;11.528;2023-04-25T11:24:33;2.40;;;0.70;;
40621;SDS011;26324;52.040;11.528;2023-04-25T11:27:02;1.45;;;0.80;;
40621;SDS011;26324;52.040;11.528;2023-04-25T11:29:32;3.60;;;1.33;;
40621;SDS011;26324;52.040;11.528;2023-04-25T11:32:00;5.05;;;1.05;;
40621;SDS011;26324;52.040;11.528;2023-04-25T11:34:30;0.75;;;0.43;;
40621;SDS011;26324;52.040;11.528;2023-04-25T11:36:59;4.13;;;0.50;;
40621;SDS011;26324;52.040;11.528;2023-04-25T11:39:27;1.58;;;0.50;;
40621;SDS011;26324;52.040;11.528;2023-04-25T11:41:55;3.40;;;1.10;;
40621;SDS011;26324;52.040;11.528;2023-04-25T11:44:23;3.42;;;0.80;;
40621;SDS011;26324;52.040;11.528;2023-04-25T11:46:50;1.80;;;0.88;;
40621;SDS011;26324;52.040;11.528;2023-04-25T11:49:17;4.28;;;1.98;;
40621;SDS011;26324;52.040;11.528;2023-04-25T11:51:46;2.63;;;0.85;;
40621;SDS011;26324;52.040;11.528;2023-04-25T11:54:15;1.73;;;0.70;;
40621;SDS011;26324;52.040;11.528;2023-04-25T11:56:43;0.60;;;0.20;;
40621;SDS011;26324;52.040;11.528;2023-04-25T11:59:11;0.85;;;0.50;;
40621;SDS011;26324;52.040;11.528;2023-04-25T12:01:40;4.57;;;0.50;;
40621;SDS011;26324;52.040;11.528;2023-04-25T12:04:24;2.17;;;0.63;;
40621;SDS011;26324;52.040;11.528;2023-04-25T12:06:52;3.33;;;1.02;;
40621;SDS011;26324;52.040;11.528;2023-04-25T12:09:31;2.13;;;0.70;;
40621;SDS011;26324;52.040;11.528;2023-04-25T12:12:00;3.28;;;0.95;;
40621;SDS011;26324;52.040;11.528;2023-04-25T12:14:32;3.10;;;0.90;;
40621;SDS011;26324;52.040;11.528;2023-04-25T12:17:02;3.08;;;1.23;;
40621;SDS011;26324;52.040;11.528;2023-04-25T12:19:34;2.53;;;1.00;;
40621;SDS011;26324;52.040;11.528;2023-04-25T12:22:08;4.28;;;0.90;;
40621;SDS011;26324;52.040;11.528;2023-04-25T12:24:49;2.08;;;1.20;;
40621;SDS011;26324;52.040;11.528;2023-04-25T12:27:17;4.13;;;0.93;;
40621;SDS011;26324;52.040;11.528;2023-04-25T12:29:52;0.80;;;0.38;;
40621;SDS011;26324;52.040;11.528;2023-04-25T12:32:21;1.25;;;0.63;;
40621;SDS011;26324;52.040;11.528;2023-04-25T12:34:49;1.83;;;0.77;;
40621;SDS011;26324;52.040;11.528;2023-04-25T12:37:16;0.98;;;0.60;;
40621;SDS011;26324;52.040;11.528;2023-04-25T12:39:43;1.77;;;1.08;;
40621;SDS011;26324;52.040;11.528;2023-04-25T12:42:11;1.98;;;0.57;;
40621;SDS011;26324;52.040;11.528;2023-04-25T12:44:39;1.42;;;1.02;;
40621;SDS011;26324;52.040;11.528;2023-04-25T12:47:08;1.60;;;0.98;;
40621;SDS011;26324;52.040;11.528;2023-04-25T12:49:35;1.27;;;0.80;;
40621;SDS011;26324;52.040;11.528;2023-04-25T12:52:03;1.90;;;0.73;;
40621;SDS011;26324;52.040;11.528;2023-04-25T12:54:30;1.60;;;0.65;;
40621;SDS011;26324;52.040;11.528;2023-04-25T12:56:57;0.75;;;0.50;;
40621;SDS011;26324;52.040;11.528;2023-04-25T12:59:26;4.43;;;0.80;;
40621;SDS011;26324;52.040;11.528;2023-04-25T13:01:54;6.78;;;0.80;;
40621;SDS011;26324;52.040;11.528;2023-04-25T13:04:21;3.67;;;1.40;;
40621;SDS011;26324;52.040;11.528;2023-04-25T13:06:48;1.98;;;0.57;;
40621;SDS011;26324;52.040;11.528;2023-04-25T13:09:16;2.40;;;0.60;;
40621;SDS011;26324;52.040;11.528;2023-04-25T13:11:43;0.80;;;0.55;;
40621;SDS011;26324;52.040;11.528;2023-04-25T13:14:10;3.03;;;0.60;;
40621;SDS011;26324;52.040;11.528;2023-04-25T13:16:38;2.08;;;0.40;;
40621;SDS011;26324;52.040;11.528;2023-04-25T13:19:05;4.07;;;0.93;;
40621;SDS011;26324;52.040;11.528;2023-04-25T13:21:34;0.95;;;0.30;;
40621;SDS011;26324;52.040;11.528;2023-04-25T13:24:01;1.63;;;0.68;;
40621;SDS011;26324;52.040;11.528;2023-04-25T13:26:29;1.05;;;0.40;;
40621;SDS011;26324;52.040;11.528;2023-04-25T13:28:56;2.53;;;0.75;;
40621;SDS011;26324;52.040;11.528;2023-04-25T13:31:23;2.45;;;1.00;;
40621;SDS011;26324;52.040;11.528;2023-04-25T13:33:51;3.40;;;0.55;;
40621;SDS011;26324;52.040;11.528;2023-04-25T13:36:19;3.00;;;0.30;;
40621;SDS011;26324;52.040;11.528;2023-04-25T13:38:47;2.72;;;1.10;;
40621;SDS011;26324;52.040;11.528;2023-04-25T13:41:16;3.33;;;0.88;;
40621;SDS011;26324;52.040;11.528;2023-04-25T13:43:46;2.03;;;0.80;;
40621;SDS011;26324;52.040;11.528;2023-04-25T13:46:14;7.70;;;0.73;;
40621;SDS011;26324;52.040;11.528;2023-04-25T13:49:02;0.77;;;0.57;;
40621;SDS011;26324;52.040;11.528;2023-04-25T13:51:39;1.70;;;0.70;;
40621;SDS011;26324;52.040;11.528;2023-04-25T13:54:07;2.88;;;0.85;;
40621;SDS011;26324;52.040;11.528;2023-04-25T13:56:34;1.65;;;0.93;;
40621;SDS011;26324;52.040;11.528;2023-04-25T13:59:02;1.92;;;0.88;;
40621;SDS011;26324;52.040;11.528;2023-04-25T14:01:29;1.92;;;0.68;;
40621;SDS011;26324;52.040;11.528;2023-04-25T14:04:04;5.13;;;0.77;;
40621;SDS011;26324;52.040;11.528;2023-04-25T14:06:31;2.05;;;1.20;;
40621;SDS011;26324;52.040;11.528;2023-04-25T14:08:59;4.72;;;0.82;;
40621;SDS011;26324;52.040;11.528;2023-04-25T14:11:31;2.13;;;0.85;;
40621;SDS011;26324;52.040;11.528;2023-04-25T14:13:58;0.88;;;0.60;;
40621;SDS011;26324;52.040;11.528;2023-04-25T14:16:25;3.33;;;0.68;;
40621;SDS011;26324;52.040;11.528;2023-04-25T14:18:53;2.47;;;0.80;;
40621;SDS011;26324;52.040;11.528;2023-04-25T14:21:21;1.55;;;0.50;;
40621;SDS011;26324;52.040;11.528;2023-04-25T14:23:48;2.17;;;0.60;;
40621;SDS011;26324;52.040;11.528;2023-04-25T14:26:16;1.83;;;0.60;;
40621;SDS011;26324;52.040;11.528;2023-04-25T14:28:43;1.20;;;0.60;;
40621;SDS011;26324;52.040;11.528;2023-04-25T14:31:11;0.38;;;0.22;;
40621;SDS011;26324;52.040;11.528;2023-04-25T14:33:38;0.88;;;0.50;;
40621;SDS011;26324;52.040;11.528;2023-04-25T14:36:09;1.80;;;0.75;;
40621;SDS011;26324;52.040;11.528;2023-04-25T14:38:36;4.10;;;0.75;;
40621;SDS011;26324;52.040;11.528;2023-04-25T14:41:04;2.90;;;0.60;;
40621;SDS011;26324;52.040;11.528;2023-04-25T14:43:31;1.98;;;0.63;;
40621;SDS011;26324;52.040;11.528;2023-04-25T14:45:58;3.38;;;0.52;;
40621;SDS011;26324;52.040;11.528;2023-04-25T14:48:26;1.45;;;0.60;;
40621;SDS011;26324;52.040;11.528;2023-04-25T14:50:53;0.68;;;0.50;;
40621;SDS011;26324;52.040;11.528;2023-04-25T14:53:23;4.00;;;0.70;;
40621;SDS011;26324;52.040;11.528;2023-04-25T14:55:50;2.35;;;0.57;;
40621;SDS011;26324;52.040;11.528;2023-04-25T14:58:18;1.80;;;0.60;;
40621;SDS011;26324;52.040;11.528;2023-04-25T15:00:45;1.25;;;0.47;;
40621;SDS011;26324;52.040;11.528;2023-04-25T15:03:13;0.90;;;0.65;;
40621;SDS011;26324;52.040;11.528;2023-04-25T15:05:43;4.82;;;0.65;;
40621;SDS011;26324;52.040;11.528;2023-04-25T15:08:11;0.32;;;0.20;;
40621;SDS011;26324;52.040;11.528;2023-04-25T15:10:38;2.67;;;0.60;;
40621;SDS011;26324;52.040;11.528;2023-04-25T15:13:09;1.60;;;0.50;;
40621;SDS011;26324;52.040;11.528;2023-04-25T15:15:39;1.67;;;0.60;;
40621;SDS011;26324;52.040;11.528;2023-04-25T15:18:07;3.90;;;0.70;;
40621;SDS011;26324;52.040;11.528;2023-04-25T15:20:34;2.92;;;0.90;;
40621;SDS011;26324;52.040;11.528;2023-04-25T15:23:02;3.40;;;1.08;;
40621;SDS011;26324;52.040;11.528;2023-04-25T15:25:32;3.17;;;0.77;;
40621;SDS011;26324;52.040;11.528;2023-04-25T15:27:59;0.75;;;0.30;;
40621;SDS011;26324;52.040;11.528;2023-04-25T15:30:26;1.15;;;0.50;;
40621;SDS011;26324;52.040;11.528;2023-04-25T15:32:54;0.98;;;0.40;;
40621;SDS011;26324;52.040;11.528;2023-04-25T15:35:22;1.73;;;0.50;;
40621;SDS011;26324;52.040;11.528;2023-04-25T15:37:49;0.45;;;0.15;;
40621;SDS011;26324;52.040;11.528;2023-04-25T15:40:19;0.88;;;0.20;;
40621;SDS011;26324;52.040;11.528;2023-04-25T15:42:47;0.45;;;0.20;;
40621;SDS011;26324;52.040;11.528;2023-04-25T15:45:19;1.38;;;0.20;;
40621;SDS011;26324;52.040;11.528;2023-04-25T15:47:50;4.65;;;0.60;;
40621;SDS011;26324;52.040;11.528;2023-04-25T15:50:21;1.17;;;0.40;;
40621;SDS011;26324;52.040;11.528;2023-04-25T15:52:49;1.73;;;0.38;;
40621;SDS011;26324;52.040;11.528;2023-04-25T15:55:19;0.65;;;0.32;;
40621;SDS011;26324;52.040;11.528;2023-04-25T15:57:49;1.02;;;0.20;;
40621;SDS011;26324;52.040;11.528;2023-04-25T16:00:17;0.77;;;0.17;;
40621;SDS011;26324;52.040;11.528;2023-04-25T16:02:45;2.88;;;0.40;;
40621;SDS011;26324;52.040;11.528;2023-04-25T16:05:14;0.80;;;0.30;;
40621;SDS011;26324;52.040;11.528;2023-04-25T16:07:43;0.80;;;0.40;;
40621;SDS011;26324;52.040;11.528;2023-04-25T16:10:11;1.05;;;0.22;;
40621;SDS011;26324;52.040;11.528;2023-04-25T16:12:39;1.30;;;0.82;;
40621;SDS011;26324;52.040;11.528;2023-04-25T16:15:07;1.25;;;0.45;;
40621;SDS011;26324;52.040;11.528;2023-04-25T16:17:34;1.33;;;0.30;;
40621;SDS011;26324;52.040;11.528;2023-04-25T16:20:02;1.65;;;0.30;;
40621;SDS011;26324;52.040;11.528;2023-04-25T16:22:37;1.05;;;0.25;;
40621;SDS011;26324;52.040;11.528;2023-04-25T16:25:07;2.67;;;0.55;;
40621;SDS011;26324;52.040;11.528;2023-04-25T16:27:35;0.10;;;0.10;;
40621;SDS011;26324;52.040;11.528;2023-04-25T16:30:05;0.90;;;0.20;;
40621;SDS011;26324;52.040;11.528;2023-04-25T16:32:34;0.20;;;0.13;;